createdAt,value
2022-09-29T00:01:05.205Z,63.7793
2022-09-29T00:03:44.857Z,63.78223
2022-09-29T00:05:44.837Z,63.79883
2022-09-29T00:07:44.916Z,64.44238
2022-09-29T00:09:44.842Z,64.15137
2022-09-29T00:11:44.874Z,64.03711
2022-09-29T00:13:44.881Z,64.2832
2022-09-29T00:15:44.848Z,64.31152
2022-09-29T00:18:48.478Z,64.70508
2022-09-29T00:20:48.471Z,64.82324
2022-09-29T00:22:48.538Z,65.05859
2022-09-29T00:24:48.481Z,65.12012
2022-09-29T00:26:48.488Z,64.98828
2022-09-29T00:28:48.465Z,65.3877
2022-09-29T00:30:48.536Z,65.33594
2022-09-29T00:32:48.454Z,65.5166
2022-09-29T00:34:25.264Z,65.43164
2022-09-29T00:36:25.344Z,65.49023
2022-09-29T00:38:25.279Z,64.96777
2022-09-29T00:40:25.362Z,65.3457
2022-09-29T00:42:25.298Z,65.39941
2022-09-29T00:44:25.238Z,65.46289
2022-09-29T00:46:25.316Z,65.92285
2022-09-29T00:49:23.866Z,65.79492
2022-09-29T00:51:20.867Z,66.01563
2022-09-29T00:53:22.086Z,66.20898
2022-09-29T00:55:20.866Z,66.29883
2022-09-29T00:57:20.832Z,66.33789
2022-09-29T00:59:20.835Z,66.0127
2022-09-29T01:01:20.960Z,66.10059
2022-09-29T01:04:29.267Z,66.00684
2022-09-29T01:06:29.256Z,65.94727
2022-09-29T01:08:29.254Z,66.29102
2022-09-29T01:10:29.310Z,65.88477
2022-09-29T01:12:29.254Z,66.0791
2022-09-29T01:14:29.314Z,66.60254
2022-09-29T01:16:29.395Z,66.54199
2022-09-29T01:20:05.353Z,66.7041
2022-09-29T01:22:02.698Z,66.8291
2022-09-29T01:24:02.577Z,66.61035
2022-09-29T01:26:02.593Z,66.51465
2022-09-29T01:28:02.574Z,66.62109
2022-09-29T01:30:02.545Z,66.7373
2022-09-29T01:32:02.603Z,66.6543
2022-09-29T01:35:18.210Z,67.01465
2022-09-29T01:37:18.162Z,67.21875
2022-09-29T01:39:18.180Z,67.30957
2022-09-29T01:41:18.253Z,67.72266
2022-09-29T01:43:18.157Z,67.20801
2022-09-29T01:45:18.155Z,67.68945
2022-09-29T01:47:18.149Z,68.28613
2022-09-29T01:49:52.247Z,68.45215
2022-09-29T01:51:52.299Z,68.12695
2022-09-29T01:53:52.235Z,68.09277
2022-09-29T01:55:52.294Z,68.44141
2022-09-29T01:57:52.307Z,68.98535
2022-09-29T01:59:52.226Z,68.94824
2022-09-29T02:01:52.360Z,68.5
2022-09-29T02:03:52.223Z,68.39453
2022-09-29T02:05:38.560Z,68.25098
2022-09-29T02:07:38.614Z,68.15527
2022-09-29T02:09:38.579Z,68.11133
2022-09-29T02:11:38.641Z,67.69238
2022-09-29T02:13:38.569Z,67.57031
2022-09-29T02:15:38.520Z,67.53711
2022-09-29T02:17:38.531Z,67.2207
2022-09-29T02:20:27.782Z,67.20215
2022-09-29T02:22:27.795Z,67.5332
2022-09-29T02:24:27.832Z,66.62109
2022-09-29T02:26:27.775Z,67.65527
2022-09-29T02:28:27.760Z,67.53125
2022-09-29T02:30:27.801Z,67.35059
2022-09-29T02:32:27.798Z,67.93555
2022-09-29T02:35:15.108Z,67.58008
2022-09-29T02:37:15.069Z,67.4248
2022-09-29T02:39:15.092Z,67.54492
2022-09-29T02:41:15.106Z,67.5166
2022-09-29T02:43:15.065Z,67.65137
2022-09-29T02:45:15.117Z,68.4541
2022-09-29T02:47:15.091Z,68.56543
2022-09-29T02:49:15.106Z,68.46875
2022-09-29T02:50:27.851Z,68.99805
2022-09-29T02:52:27.820Z,69.41504
2022-09-29T02:54:27.885Z,69.94824
2022-09-29T02:56:27.842Z,70.5498
2022-09-29T02:58:27.852Z,71.03711
2022-09-29T03:00:27.881Z,70.69141
2022-09-29T03:02:27.838Z,70.81934
2022-09-29T03:04:27.862Z,70.21777
2022-09-29T03:06:21.374Z,70.72168
2022-09-29T03:08:21.345Z,70.87207
2022-09-29T03:10:21.385Z,70.03906
2022-09-29T03:12:21.412Z,70.26367
2022-09-29T03:14:21.355Z,70.3584
2022-09-29T03:16:21.462Z,70.32715
2022-09-29T03:18:21.345Z,69.87598
2022-09-29T03:21:15.408Z,69.64941
2022-09-29T03:23:15.389Z,69.2334
2022-09-29T03:25:15.437Z,69.37305
2022-09-29T03:27:15.435Z,69.51172
2022-09-29T03:29:15.598Z,69.67285
2022-09-29T03:31:15.504Z,69.8877
2022-09-29T03:33:15.385Z,69.94727
2022-09-29T03:36:15.192Z,70.32227
2022-09-29T03:38:15.125Z,70.11133
2022-09-29T03:40:15.147Z,70.44727
2022-09-29T03:42:15.110Z,70.38672
2022-09-29T03:44:15.169Z,70.31738
2022-09-29T03:46:15.346Z,69.79688
2022-09-29T03:48:15.167Z,69.8252
2022-09-29T03:51:38.603Z,70.29297
2022-09-29T03:53:38.639Z,70.21484
2022-09-29T03:55:38.595Z,70.33496
2022-09-29T03:57:38.568Z,70.30762
2022-09-29T03:59:45.659Z,70.31934
2022-09-29T04:01:38.830Z,70.50488
2022-09-29T04:03:38.593Z,70.48828
2022-09-29T04:06:24.249Z,70.31055
2022-09-29T04:08:24.408Z,70.56348
2022-09-29T04:10:24.253Z,70.69922
2022-09-29T04:12:24.256Z,70.8584
2022-09-29T04:14:24.333Z,70.67188
2022-09-29T04:16:24.394Z,70.56348
2022-09-29T04:18:24.425Z,70.36035
2022-09-29T04:22:19.917Z,70.53613
2022-09-29T04:24:19.975Z,70.09277
2022-09-29T04:26:19.837Z,69.82324
2022-09-29T04:28:19.799Z,69.9082
2022-09-29T04:30:19.820Z,69.55273
2022-09-29T04:32:19.813Z,69.35938
2022-09-29T04:34:19.847Z,69.43555
2022-09-29T04:37:27.577Z,68.91992
2022-09-29T04:39:27.555Z,68.7041
2022-09-29T04:41:27.525Z,68.7373
2022-09-29T04:43:27.611Z,68.49316
2022-09-29T04:45:27.680Z,69.39258
2022-09-29T04:47:27.594Z,69.28418
2022-09-29T04:49:27.551Z,69.27246
2022-09-29T04:52:22.355Z,68.94238
2022-09-29T04:54:22.403Z,69.04004
2022-09-29T04:56:22.389Z,69.10059
2022-09-29T04:58:22.364Z,68.99316
2022-09-29T05:00:22.417Z,68.8291
2022-09-29T05:02:22.468Z,68.43066
2022-09-29T05:04:22.419Z,68.17285
2022-09-29T05:07:33.348Z,67.71094
2022-09-29T05:09:34.407Z,67.40723
2022-09-29T05:11:33.333Z,66.66211
2022-09-29T05:13:33.348Z,63.94629
2022-09-29T05:15:33.331Z,61.82715
2022-09-29T05:17:33.307Z,59.91602
2022-09-29T05:19:33.288Z,59.98926
2022-09-29T05:23:03.463Z,58.2793
2022-09-29T05:25:03.400Z,57.41504
2022-09-29T05:27:03.422Z,56.98047
2022-09-29T05:29:03.444Z,55.88477
2022-09-29T05:31:03.438Z,57.30762
2022-09-29T05:33:03.395Z,58.56836
2022-09-29T05:35:03.417Z,58.92773
2022-09-29T05:37:34.937Z,60.95508
2022-09-29T05:39:34.953Z,59.65332
2022-09-29T05:41:34.954Z,60.88965
2022-09-29T05:43:35.067Z,59.30566
2022-09-29T05:45:34.995Z,60.3457
2022-09-29T05:47:34.937Z,60.88086
2022-09-29T05:49:34.964Z,60.39648
2022-09-29T05:53:01.187Z,59.44336
2022-09-29T05:55:01.207Z,59.55469
2022-09-29T05:57:01.159Z,60.18359
2022-09-29T05:59:01.257Z,59.99316
2022-09-29T06:01:01.270Z,59.98926
2022-09-29T06:03:01.263Z,59.75879
2022-09-29T06:05:01.159Z,59.39453
2022-09-29T06:08:30.602Z,59.96191
2022-09-29T06:10:30.618Z,60.26758
2022-09-29T06:12:30.538Z,60.26465
2022-09-29T06:14:30.605Z,61.01758
2022-09-29T06:16:30.763Z,60.41504
2022-09-29T06:18:30.569Z,59.39453
2022-09-29T06:20:30.597Z,57.79688
2022-09-29T06:22:48.078Z,57.77148
2022-09-29T06:24:48.132Z,57.19922
2022-09-29T06:26:48.133Z,56.30859
2022-09-29T06:28:48.057Z,57.14648
2022-09-29T06:30:48.260Z,57.76953
2022-09-29T06:32:48.059Z,57.12305
2022-09-29T06:34:48.084Z,58.0957
2022-09-29T06:36:48.056Z,57.91113
2022-09-29T06:38:02.920Z,57.90234
2022-09-29T06:40:07.742Z,57.13281
2022-09-29T06:42:02.998Z,56.38867
2022-09-29T06:44:02.916Z,56.12109
2022-09-29T06:46:05.701Z,55.84766
2022-09-29T06:48:02.969Z,55.55273
2022-09-29T06:50:12.858Z,54.85352
2022-09-29T06:52:20.157Z,54.73047
2022-09-29T06:54:14.864Z,54.34766
2022-09-29T06:56:14.846Z,54.19336
2022-09-29T06:58:14.901Z,53.68359
2022-09-29T07:00:14.857Z,53.53809
2022-09-29T07:02:14.968Z,54.01563
2022-09-29T07:04:14.819Z,53.99316
2022-09-29T07:06:20.752Z,53.48047
2022-09-29T07:09:26.973Z,53.14453
2022-09-29T07:11:26.948Z,53.05273
2022-09-29T07:13:26.950Z,54.44238
2022-09-29T07:15:26.940Z,53.21289
2022-09-29T07:17:26.975Z,52.40527
2022-09-29T07:19:26.886Z,53.64648
2022-09-29T07:21:26.899Z,52.37793
2022-09-29T07:23:50.795Z,52.84082
2022-09-29T07:25:52.798Z,52.56348
2022-09-29T07:27:50.733Z,52.77637
2022-09-29T07:30:03.880Z,52.28613
2022-09-29T07:31:53.007Z,51.9873
2022-09-29T07:33:50.759Z,52.15137
2022-09-29T07:35:50.769Z,52.11621
2022-09-29T07:39:38.154Z,52.12109
2022-09-29T07:41:38.140Z,51.46094
2022-09-29T07:43:38.164Z,51.01172
2022-09-29T07:45:38.362Z,50.2373
2022-09-29T07:47:38.137Z,50.50195
2022-09-29T07:49:38.150Z,50.27051
2022-09-29T07:51:38.133Z,47.64844
2022-09-29T07:54:06.704Z,49.0791
2022-09-29T07:56:06.750Z,49.77344
2022-09-29T07:58:06.698Z,48.58105
2022-09-29T08:00:06.703Z,49.08203
2022-09-29T08:02:06.824Z,48.22949
2022-09-29T08:04:06.730Z,48.22168
2022-09-29T08:06:06.771Z,46.55566
2022-09-29T08:08:06.730Z,46.9873
2022-09-29T08:09:41.461Z,45.15137
2022-09-29T08:11:33.413Z,45.63965
2022-09-29T08:13:32.641Z,45.67676
2022-09-29T08:15:32.637Z,46.05273
2022-09-29T08:17:32.848Z,45.35156
2022-09-29T08:19:32.650Z,45.32129
2022-09-29T08:21:32.657Z,44.59375
2022-09-29T08:24:25.106Z,44.42676
2022-09-29T08:26:42.338Z,44.60645
2022-09-29T08:28:32.715Z,45.46973
2022-09-29T08:30:25.068Z,43.06738
2022-09-29T08:32:25.063Z,43.04395
2022-09-29T08:34:25.076Z,44.1543
2022-09-29T08:36:25.062Z,43.20508
2022-09-29T08:38:25.195Z,43.16504
2022-09-29T08:40:24.457Z,41.72168
2022-09-29T08:42:24.419Z,43.70703
2022-09-29T08:44:38.660Z,43.27148
2022-09-29T08:46:36.265Z,42.8418
2022-09-29T08:48:24.540Z,42.63965
2022-09-29T08:50:24.441Z,42.87598
2022-09-29T08:52:24.430Z,42.24609
2022-09-29T08:55:21.373Z,42.08398
2022-09-29T08:57:07.700Z,42.2666
2022-09-29T08:59:07.730Z,42.33203
2022-09-29T09:01:07.782Z,42.59668
2022-09-29T09:03:07.691Z,40.87207
2022-09-29T09:05:07.839Z,41.74121
2022-09-29T09:07:07.680Z,40.35254
2022-09-29T09:10:23.495Z,40.62012
2022-09-29T09:12:23.528Z,40.10156
2022-09-29T09:14:23.498Z,39.7041
2022-09-29T09:16:23.584Z,39.1709
2022-09-29T09:18:23.492Z,38.87305
2022-09-29T09:20:23.487Z,39.00684
2022-09-29T09:22:23.506Z,39.30078
2022-09-29T09:25:07.936Z,39.92773
2022-09-29T09:27:08.250Z,40.04688
2022-09-29T09:29:07.924Z,38.83887
2022-09-29T09:31:08.169Z,37.0498
2022-09-29T09:33:07.920Z,38.67578
2022-09-29T09:35:23.162Z,37.26563
2022-09-29T09:37:08.938Z,38.99512
2022-09-29T09:39:07.938Z,38.96387
2022-09-29T09:40:54.842Z,38.09961
2022-09-29T09:42:54.801Z,38.18457
2022-09-29T09:44:54.797Z,38.31348
2022-09-29T09:46:54.760Z,37.42969
2022-09-29T09:48:54.811Z,37.58105
2022-09-29T09:50:54.741Z,37.17871
2022-09-29T09:52:54.739Z,37.92773
2022-09-29T09:56:06.426Z,37.10742
2022-09-29T09:58:06.412Z,36.20313
2022-09-29T10:00:06.369Z,37.43066
2022-09-29T10:02:06.455Z,37.60645
2022-09-29T10:04:06.351Z,35.70605
2022-09-29T10:06:06.391Z,35.87598
2022-09-29T10:08:06.397Z,36.36719
2022-09-29T10:11:07.523Z,36.53906
2022-09-29T10:13:07.609Z,36.16309
2022-09-29T10:15:07.611Z,35.95996
2022-09-29T10:17:07.526Z,34.9707
2022-09-29T10:19:07.493Z,35.81055
2022-09-29T10:21:07.563Z,35.30957
2022-09-29T10:23:07.507Z,34.97852
2022-09-29T10:26:25.121Z,35.96875
2022-09-29T10:28:25.101Z,35.49316
2022-09-29T10:30:25.227Z,35.9248
2022-09-29T10:32:25.083Z,36.41211
2022-09-29T10:34:25.084Z,35.4707
2022-09-29T10:36:25.085Z,34.91699
2022-09-29T10:38:25.061Z,35.60156
2022-09-29T10:40:56.387Z,35.0332
2022-09-29T10:42:56.504Z,35.39453
2022-09-29T10:44:56.385Z,34.62109
2022-09-29T10:46:56.434Z,33.86621
2022-09-29T10:48:56.404Z,35.72559
2022-09-29T10:50:56.486Z,35.62012
2022-09-29T10:52:56.412Z,34.7832
2022-09-29T10:54:56.411Z,35.74707
2022-09-29T10:56:46.706Z,34.76367
2022-09-29T10:59:01.656Z,35.95215
2022-09-29T11:00:46.725Z,35.91602
2022-09-29T11:02:46.827Z,36.41016
2022-09-29T11:04:46.742Z,34.99512
2022-09-29T11:06:46.690Z,35.4209
2022-09-29T11:08:46.758Z,35.54883
2022-09-29T11:12:09.649Z,34.47266
2022-09-29T11:14:04.785Z,35.71191
2022-09-29T11:16:04.758Z,34.37207
2022-09-29T11:18:04.888Z,33.97266
2022-09-29T11:20:04.730Z,36.30176
2022-09-29T11:22:04.735Z,35.39746
2022-09-29T11:24:04.764Z,36.30176
2022-09-29T11:27:10.374Z,36.22168
2022-09-29T11:29:10.343Z,35.87305
2022-09-29T11:31:10.409Z,36.07031
2022-09-29T11:33:10.363Z,36.98047
2022-09-29T11:35:10.364Z,35.39844
2022-09-29T11:37:10.336Z,35.37793
2022-09-29T11:39:10.375Z,36.17969
2022-09-29T11:42:03.743Z,35.01172
2022-09-29T11:44:03.694Z,35.45801
2022-09-29T11:46:04.002Z,34.90527
2022-09-29T11:48:03.720Z,35.50977
2022-09-29T11:50:03.736Z,35.44727
2022-09-29T11:52:03.748Z,36.52441
2022-09-29T11:54:07.403Z,36.56152
2022-09-29T11:57:27.762Z,35.27148
2022-09-29T11:59:27.707Z,36.7168
2022-09-29T12:01:27.722Z,36.85742
2022-09-29T12:03:27.816Z,36.74023
2022-09-29T12:05:27.783Z,36.37891
2022-09-29T12:07:27.720Z,36.74023
2022-09-29T12:09:27.789Z,36.51563
2022-09-29T12:12:24.884Z,37.69434
2022-09-29T12:14:06.879Z,36.99805
2022-09-29T12:16:06.883Z,38.89355
2022-09-29T12:18:06.881Z,35.74023
2022-09-29T12:20:06.959Z,35.51172
2022-09-29T12:22:06.921Z,34.09375
2022-09-29T12:24:06.858Z,34.88184
2022-09-29T12:27:15.886Z,34.34277
2022-09-29T12:29:15.865Z,32.82031
2022-09-29T12:31:16.046Z,33.16113
2022-09-29T12:33:15.865Z,32.33594
2022-09-29T12:35:16.029Z,33.41895
2022-09-29T12:37:15.903Z,33.65723
2022-09-29T12:39:15.859Z,33.51758
2022-09-29T12:42:45.304Z,33.32129
2022-09-29T12:44:45.254Z,35.19922
2022-09-29T12:46:45.282Z,34.46875
2022-09-29T12:48:45.244Z,34.67383
2022-09-29T12:50:45.351Z,36.24512
2022-09-29T12:52:45.235Z,36.28809
2022-09-29T12:54:45.271Z,36.0166
2022-09-29T12:57:41.014Z,36.00977
2022-09-29T12:59:41.334Z,37.00098
2022-09-29T13:01:41.171Z,35.51563
2022-09-29T13:03:40.971Z,36.9873
2022-09-29T13:05:40.999Z,36.95996
2022-09-29T13:07:41.084Z,37.41309
2022-09-29T13:09:41.109Z,36.05176
2022-09-29T13:12:50.334Z,36.91309
2022-09-29T13:14:50.317Z,36.50781
2022-09-29T13:16:50.379Z,36.39648
2022-09-29T13:19:06.936Z,36.42285
2022-09-29T13:20:50.328Z,37.00293
2022-09-29T13:22:50.432Z,36.98926
2022-09-29T13:24:52.798Z,37.19434
2022-09-29T13:28:27.501Z,37.52051
2022-09-29T13:30:27.699Z,37.37988
2022-09-29T13:32:27.505Z,36.52148
2022-09-29T13:34:27.511Z,39.02832
2022-09-29T13:36:27.856Z,38.77441
2022-09-29T13:38:27.543Z,38.64746
2022-09-29T13:40:27.541Z,38.50684
2022-09-29T13:43:39.319Z,38.58203
2022-09-29T13:45:39.232Z,38.08105
2022-09-29T13:47:39.568Z,39.07031
2022-09-29T13:49:39.223Z,40.0918
2022-09-29T13:51:39.221Z,41.34277
2022-09-29T13:53:39.267Z,40.70215
2022-09-29T13:55:39.242Z,39.5918
2022-09-29T13:58:37.758Z,38.9707
2022-09-29T14:00:37.903Z,40.09961
2022-09-29T14:02:38.057Z,41.26074
2022-09-29T14:04:38.382Z,39.94531
2022-09-29T14:06:43.914Z,42.16992
2022-09-29T14:08:37.815Z,40.59082
2022-09-29T14:10:37.856Z,40.43848
2022-09-29T14:13:25.617Z,44.08301
2022-09-29T14:15:25.595Z,45.45801
2022-09-29T14:17:25.637Z,45.67285
2022-09-29T14:19:25.798Z,45.87109
2022-09-29T14:21:25.586Z,45.83301
2022-09-29T14:23:25.792Z,45.69434
2022-09-29T14:25:25.404Z,46.5459
2022-09-29T14:29:16.135Z,45.45801
2022-09-29T14:31:16.284Z,45.14453
2022-09-29T14:33:16.087Z,48.02539
2022-09-29T14:35:16.184Z,49.66797
2022-09-29T14:37:16.104Z,51.83594
2022-09-29T14:39:27.248Z,53.10156
2022-09-29T14:41:16.117Z,53.71973
2022-09-29T14:44:25.446Z,54.38379
2022-09-29T14:46:25.577Z,55.18555
2022-09-29T14:48:25.440Z,55.55176
2022-09-29T14:50:25.413Z,56.09766
2022-09-29T14:52:25.391Z,56.55957
2022-09-29T14:54:25.459Z,57.02148
2022-09-29T14:56:25.367Z,56.99512
2022-09-29T14:58:58.945Z,56.97559
2022-09-29T15:00:58.959Z,56.93555
2022-09-29T15:03:23.815Z,57.13672
2022-09-29T15:04:58.928Z,57.72656
2022-09-29T15:06:58.896Z,57.95215
2022-09-29T15:08:59.058Z,57.90039
2022-09-29T15:10:58.909Z,57.89258
2022-09-29T15:14:43.093Z,57.9082
2022-09-29T15:16:43.093Z,57.91211
2022-09-29T15:18:43.037Z,57.90918
2022-09-29T15:20:43.090Z,57.98828
2022-09-29T15:22:43.048Z,58.36621
2022-09-29T15:24:43.036Z,58.24023
2022-09-29T15:26:43.039Z,58.24805
2022-09-29T15:29:25.944Z,58.64941
2022-09-29T15:31:25.645Z,59.10156
2022-09-29T15:33:25.596Z,59.13281
2022-09-29T15:35:25.598Z,58.65527
2022-09-29T15:37:25.567Z,59.05078
2022-09-29T15:39:25.518Z,59.12793
2022-09-29T15:41:31.514Z,59.05371
2022-09-29T15:44:22.482Z,55.02441
2022-09-29T15:46:22.383Z,58.00781
2022-09-29T15:48:22.043Z,57.40332
2022-09-29T15:50:22.151Z,58.48633
2022-09-29T15:54:22.662Z,57.83789
2022-09-29T15:56:22.050Z,57.33594
2022-09-29T16:00:20.210Z,56.17969
2022-09-29T16:02:20.323Z,55.98828
2022-09-29T16:04:20.543Z,56.36621
2022-09-29T16:06:20.232Z,56.30176
2022-09-29T16:08:20.204Z,56.55078
2022-09-29T16:10:20.218Z,57.76367
2022-09-29T16:12:20.240Z,57.86719
2022-09-29T16:14:50.228Z,57.76953
2022-09-29T16:16:47.187Z,58.31641
2022-09-29T16:18:47.203Z,59.42383
2022-09-29T16:20:47.265Z,60.83203
2022-09-29T16:22:47.249Z,61.70215
2022-09-29T16:24:47.191Z,62.76953
2022-09-29T16:26:47.176Z,63.90625
2022-09-29T16:29:56.277Z,64.39063
2022-09-29T16:31:56.215Z,65.70703
2022-09-29T16:33:56.272Z,65.60156
2022-09-29T16:35:56.300Z,65.33789
2022-09-29T16:37:56.327Z,65.99316
2022-09-29T16:39:56.249Z,66.71191
2022-09-29T16:41:56.205Z,66.71777
2022-09-29T16:45:36.174Z,66.30371
2022-09-29T16:47:36.150Z,66.80859
2022-09-29T16:49:36.240Z,67.07422
2022-09-29T16:51:40.569Z,66.83496
2022-09-29T16:53:36.237Z,67.21875
2022-09-29T16:55:36.131Z,67.13672
2022-09-29T16:57:36.151Z,66.50293
2022-09-29T17:00:06.108Z,66.5166
2022-09-29T17:02:06.409Z,66.41309
2022-09-29T17:04:06.043Z,66.4834
2022-09-29T17:06:06.376Z,66.10742
2022-09-29T17:08:06.043Z,66.7998
2022-09-29T17:10:06.363Z,66.85059
2022-09-29T17:12:06.101Z,66.30762
2022-09-29T17:14:06.060Z,66.76074
2022-09-29T17:15:22.582Z,66.76074
2022-09-29T17:17:22.792Z,66.5791
2022-09-29T17:19:23.310Z,66.57324
2022-09-29T17:21:22.508Z,66.77051
2022-09-29T17:23:22.557Z,66.67285
2022-09-29T17:25:22.594Z,66.84668
2022-09-29T17:27:22.494Z,67.02637
2022-09-29T17:30:58.026Z,67.73535
2022-09-29T17:32:57.923Z,68.30371
2022-09-29T17:34:57.972Z,68.24121
2022-09-29T17:36:57.960Z,68.01758
2022-09-29T17:38:57.991Z,68.45703
2022-09-29T17:40:58.134Z,68.93457
2022-09-29T17:42:57.966Z,68.42969
2022-09-29T17:45:44.280Z,68.5625
2022-09-29T17:47:44.260Z,68.23047
2022-09-29T17:49:44.279Z,68.52344
2022-09-29T17:51:44.218Z,68.90039
2022-09-29T17:53:44.263Z,68.62207
2022-09-29T17:55:44.224Z,68.10059
2022-09-29T17:57:44.424Z,68.04199
2022-09-29T18:01:08.204Z,68.4541
2022-09-29T18:03:08.359Z,68.40527
2022-09-29T18:05:08.397Z,68.47363
2022-09-29T18:07:08.215Z,68.27539
2022-09-29T18:09:08.332Z,68.1543
2022-09-29T18:11:08.136Z,68.32324
2022-09-29T18:13:08.523Z,68.54395
2022-09-29T18:15:54.959Z,68.52832
2022-09-29T18:17:54.838Z,68.61914
2022-09-29T18:19:54.870Z,68.37012
2022-09-29T18:21:54.823Z,68.44336
2022-09-29T18:23:54.857Z,68.60254
2022-09-29T18:25:54.863Z,68.61816
2022-09-29T18:27:54.862Z,68.51465
2022-09-29T18:29:54.937Z,68.65332
2022-09-29T18:31:12.799Z,68.57715
2022-09-29T18:33:07.541Z,68.55762
2022-09-29T18:35:07.769Z,68.87207
2022-09-29T18:37:07.504Z,68.8916
2022-09-29T18:39:07.586Z,69.00586
2022-09-29T18:41:07.464Z,69.06543
2022-09-29T18:43:07.549Z,68.70508
2022-09-29T18:47:05.367Z,69.27539
2022-09-29T18:49:05.126Z,69.26172
2022-09-29T18:51:05.121Z,69.25879
2022-09-29T18:53:05.068Z,69.2041
2022-09-29T18:55:05.111Z,69.54297
2022-09-29T18:57:05.069Z,69.60938
2022-09-29T18:59:05.062Z,69.41504
2022-09-29T19:01:20.490Z,69.55273
2022-09-29T19:03:20.486Z,69.63965
2022-09-29T19:05:20.276Z,69.75977
2022-09-29T19:07:20.292Z,69.64258
2022-09-29T19:09:20.707Z,69.55273
2022-09-29T19:11:20.270Z,69.37402
2022-09-29T19:13:20.232Z,69.45313
2022-09-29T19:15:20.634Z,69.4668
2022-09-29T19:16:28.607Z,69.56055
2022-09-29T19:18:28.509Z,69.94824
2022-09-29T19:20:28.392Z,69.93555
2022-09-29T19:22:29.532Z,69.82324
2022-09-29T19:24:28.471Z,70.22656
2022-09-29T19:26:29.149Z,69.91602
2022-09-29T19:28:28.388Z,69.82617
2022-09-29T19:30:28.386Z,70.35742
2022-09-29T19:31:52.091Z,70.45898
2022-09-29T19:33:52.100Z,70.22656
2022-09-29T19:35:52.049Z,69.96094
2022-09-29T19:37:52.059Z,70.00391
2022-09-29T19:39:52.114Z,70.13086
2022-09-29T19:41:52.172Z,70.29199
2022-09-29T19:43:52.074Z,69.98535
2022-09-29T19:47:44.336Z,70.1709
2022-09-29T19:49:44.308Z,70.32227
2022-09-29T19:51:47.756Z,70.28711
2022-09-29T19:53:49.671Z,70.13379
2022-09-29T19:55:44.298Z,70.19824
2022-09-29T19:57:44.518Z,70.34766
2022-09-29T19:59:44.253Z,70.21582
2022-09-29T20:02:09.120Z,70.22949
2022-09-29T20:04:08.659Z,70.24902
2022-09-29T20:06:08.676Z,70.25879
2022-09-29T20:08:10.750Z,70.07324
2022-09-29T20:10:08.739Z,70.28125
2022-09-29T20:12:08.630Z,70.79492
2022-09-29T20:14:08.655Z,71.21387
2022-09-29T20:17:32.127Z,71.63184
2022-09-29T20:19:32.102Z,71.7168
2022-09-29T20:21:32.053Z,71.35449
2022-09-29T20:23:32.060Z,71.1123
2022-09-29T20:25:32.027Z,70.91895
2022-09-29T20:27:32.011Z,70.83398
2022-09-29T20:29:31.989Z,71.06445
2022-09-29T20:33:14.727Z,71.40723
2022-09-29T20:35:14.660Z,72.20508
2022-09-29T20:37:14.691Z,72.18359
2022-09-29T20:39:14.637Z,71.95313
2022-09-29T20:41:14.688Z,71.92578
2022-09-29T20:43:14.649Z,72.06055
2022-09-29T20:45:14.733Z,72.26953
2022-09-29T20:47:48.972Z,72.08008
2022-09-29T20:49:49.039Z,71.60938
2022-09-29T20:51:48.934Z,71.33789
2022-09-29T20:53:48.967Z,71.08594
2022-09-29T20:55:48.985Z,71.10742
2022-09-29T20:57:48.945Z,71.09375
2022-09-29T20:59:48.954Z,70.97852
2022-09-29T21:03:16.018Z,71.05859
2022-09-29T21:05:15.939Z,70.55371
2022-09-29T21:07:16.045Z,70.64355
2022-09-29T21:09:16.396Z,70.75391
2022-09-29T21:11:16.261Z,70.97266
2022-09-29T21:13:15.998Z,71.02832
2022-09-29T21:15:15.963Z,71.47949
2022-09-29T21:18:12.973Z,70.99902
2022-09-29T21:20:12.995Z,70.7793
2022-09-29T21:22:12.920Z,70.60547
2022-09-29T21:24:12.910Z,70.4248
2022-09-29T21:26:13.358Z,70.7373
2022-09-29T21:28:12.880Z,70.67383
2022-09-29T21:30:12.894Z,70.5957
2022-09-29T21:33:18.606Z,70.48633
2022-09-29T21:35:18.558Z,70.66406
2022-09-29T21:37:18.593Z,70.5791
2022-09-29T21:39:18.569Z,70.22559
2022-09-29T21:41:18.602Z,70.34375
2022-09-29T21:43:18.568Z,70.67285
2022-09-29T21:45:18.513Z,70.54102
2022-09-29T21:48:53.657Z,70.44629
2022-09-29T21:50:53.622Z,70.33105
2022-09-29T21:52:53.665Z,70.53613
2022-09-29T21:54:53.650Z,70.5625
2022-09-29T21:56:53.689Z,70.68262
2022-09-29T21:58:53.721Z,70.69727
2022-09-29T22:00:53.626Z,70.43262
2022-09-29T22:04:05.405Z,70.32715
2022-09-29T22:06:05.372Z,70.58887
2022-09-29T22:08:12.213Z,70.5293
2022-09-29T22:10:05.376Z,70.70215
2022-09-29T22:12:05.495Z,70.62305
2022-09-29T22:14:05.434Z,70.47461
2022-09-29T22:16:05.511Z,70.58203
2022-09-29T22:19:24.340Z,70.51367
2022-09-29T22:21:13.204Z,70.64258
2022-09-29T22:23:13.264Z,70.45996
2022-09-29T22:25:13.206Z,70.3584
2022-09-29T22:27:13.301Z,70.29297
2022-09-29T22:29:13.327Z,70.36133
2022-09-29T22:31:13.417Z,70.55469
2022-09-29T22:34:25.962Z,70.64258
2022-09-29T22:36:25.758Z,70.62891
2022-09-29T22:38:25.774Z,70.73633
2022-09-29T22:40:25.705Z,70.50293
2022-09-29T22:42:25.702Z,70.48926
2022-09-29T22:44:25.664Z,70.2168
2022-09-29T22:46:25.794Z,70.45703
2022-09-29T22:49:02.014Z,70.49121
2022-09-29T22:51:01.977Z,70.69727
2022-09-29T22:53:01.967Z,70.54004
2022-09-29T22:55:02.362Z,70.70996
2022-09-29T22:57:01.982Z,70.93848
2022-09-29T22:59:02.128Z,70.89746
2022-09-29T23:01:02.021Z,71.21875
2022-09-29T23:04:29.951Z,71.12695
2022-09-29T23:06:29.777Z,71.18066
2022-09-29T23:08:29.748Z,70.69141
2022-09-29T23:10:29.745Z,71.18164
2022-09-29T23:12:29.732Z,70.61328
2022-09-29T23:14:29.791Z,70.40918
2022-09-29T23:16:29.982Z,70.38574
2022-09-29T23:20:04.738Z,70.36523
2022-09-29T23:22:04.720Z,70.39355
2022-09-29T23:24:04.694Z,70.15039
2022-09-29T23:26:04.728Z,70.14746
2022-09-29T23:28:04.688Z,70.32715
2022-09-29T23:30:04.718Z,70.46094
2022-09-29T23:32:04.714Z,70.45508
2022-09-29T23:35:07.625Z,70.46973
2022-09-29T23:37:07.632Z,70.42676
2022-09-29T23:39:07.643Z,70.58496
2022-09-29T23:41:07.636Z,70.5
2022-09-29T23:43:07.634Z,70.57715
2022-09-29T23:45:07.690Z,70.58887
2022-09-29T23:47:07.644Z,71.11523
2022-09-29T23:49:42.088Z,71.01758
2022-09-29T23:51:42.077Z,71.10156
2022-09-29T23:53:42.104Z,70.99609
2022-09-29T23:55:42.100Z,70.97168
2022-09-29T23:57:42.081Z,70.84473
2022-09-29T23:59:42.102Z,70.87109
